createdAt,value
2024-03-02T00:00:23.677Z,36.58
2024-03-02T00:03:34.324Z,31.42
2024-03-02T00:06:39.080Z,34.55
2024-03-02T00:09:44.016Z,33.47
2024-03-02T00:12:49.901Z,33.00
2024-03-02T00:15:59.458Z,32.58
2024-03-02T00:19:30.103Z,31.17
2024-03-02T00:23:00.584Z,34.13
2024-03-02T00:26:12.341Z,32.88
2024-03-02T00:33:11.519Z,31.70
2024-03-02T00:36:40.475Z,32.83
2024-03-02T00:40:12.794Z,30.25
2024-03-02T00:43:45.754Z,32.72
2024-03-02T00:47:15.363Z,34.15
2024-03-02T00:50:30.476Z,31.80
2024-03-02T00:53:35.229Z,27.80
2024-03-02T00:56:38.625Z,33.97
2024-03-02T00:59:42.280Z,32.30
2024-03-02T01:02:47.629Z,29.13
2024-03-02T01:05:53.902Z,33.47
2024-03-02T01:08:57.711Z,35.65
2024-03-02T01:12:01.265Z,33.85
2024-03-02T01:15:09.206Z,38.10
2024-03-02T01:18:12.770Z,34.85
2024-03-02T01:21:18.083Z,30.13
2024-03-02T01:24:21.973Z,36.97
2024-03-02T01:27:26.082Z,39.28
2024-03-02T01:30:34.014Z,39.65
2024-03-02T01:33:39.980Z,35.47
2024-03-02T01:36:44.999Z,33.40
2024-03-02T01:39:48.793Z,36.97
2024-03-02T01:42:58.826Z,33.00
2024-03-02T01:46:02.548Z,32.33
2024-03-02T01:49:06.950Z,36.50
2024-03-02T01:52:12.479Z,32.88
2024-03-02T01:55:16.300Z,29.02
2024-03-02T01:58:19.886Z,30.45
2024-03-02T02:01:24.932Z,33.45
2024-03-02T02:04:37.644Z,32.95
2024-03-02T02:07:43.197Z,33.90
2024-03-02T02:10:47.034Z,31.05
2024-03-02T02:13:51.025Z,36.53
2024-03-02T02:16:57.974Z,28.63
2024-03-02T02:20:01.872Z,30.67
2024-03-02T02:23:10.753Z,31.23
2024-03-02T02:26:15.314Z,40.40
2024-03-02T02:29:19.096Z,30.33
2024-03-02T02:32:22.760Z,31.10
2024-03-02T02:35:26.752Z,35.13
2024-03-02T02:38:32.251Z,31.13
2024-03-02T02:41:36.758Z,32.83
2024-03-02T02:44:40.739Z,34.10
2024-03-02T02:47:44.858Z,38.67
2024-03-02T02:50:48.508Z,34.78
2024-03-02T02:54:08.084Z,36.08
2024-03-02T02:57:11.616Z,31.20
2024-03-02T03:00:18.368Z,33.70
2024-03-02T03:03:23.626Z,30.25
2024-03-02T03:06:31.804Z,32.58
2024-03-02T03:09:40.982Z,32.22
2024-03-02T03:12:48.100Z,35.35
2024-03-02T03:15:52.088Z,34.83
2024-03-02T03:18:56.786Z,38.13
2024-03-02T03:22:00.452Z,35.60
2024-03-02T03:25:05.818Z,37.83
2024-03-02T03:28:11.140Z,30.23
2024-03-02T03:31:17.481Z,34.83
2024-03-02T03:34:21.225Z,33.35
2024-03-02T03:37:25.252Z,33.25
2024-03-02T03:40:31.846Z,31.23
2024-03-02T03:43:35.405Z,31.50
2024-03-02T03:46:39.530Z,30.67
2024-03-02T03:49:43.254Z,35.63
2024-03-02T03:52:48.709Z,36.45
2024-03-02T03:55:54.025Z,32.58
2024-03-02T03:58:57.453Z,28.73
2024-03-02T04:02:01.355Z,34.78
2024-03-02T04:05:09.729Z,37.28
2024-03-02T04:08:13.510Z,30.20
2024-03-02T04:11:19.246Z,39.28
2024-03-02T04:14:24.045Z,30.08
2024-03-02T04:17:29.118Z,36.35
2024-03-02T04:20:33.382Z,36.85
2024-03-02T04:23:38.631Z,41.00
2024-03-02T04:26:45.916Z,33.67
2024-03-02T04:29:51.581Z,38.95
2024-03-02T04:32:55.565Z,34.42
2024-03-02T04:35:59.144Z,30.67
2024-03-02T04:39:03.771Z,34.75
2024-03-02T04:42:09.133Z,39.05
2024-03-02T04:45:14.963Z,33.90
2024-03-02T04:48:18.981Z,35.50
2024-03-02T04:51:22.971Z,33.53
2024-03-02T04:54:27.494Z,29.50
2024-03-02T04:57:32.575Z,32.80
2024-03-02T05:00:36.343Z,30.35
2024-03-02T05:03:43.600Z,37.38
2024-03-02T05:06:55.387Z,34.22
2024-03-02T05:10:00.070Z,34.58
2024-03-02T05:13:05.689Z,35.80
2024-03-02T05:16:09.257Z,40.42
2024-03-02T05:19:12.737Z,37.78
2024-03-02T05:22:20.600Z,37.00
2024-03-02T05:25:25.065Z,32.60
2024-03-02T05:28:30.229Z,36.67
2024-03-02T05:31:34.890Z,33.22
2024-03-02T05:34:38.543Z,28.55
2024-03-02T05:37:43.149Z,37.25
2024-03-02T05:40:46.871Z,35.42
2024-03-02T05:43:52.779Z,33.53
2024-03-02T05:46:56.503Z,31.95
2024-03-02T05:50:00.055Z,40.35
2024-03-02T05:53:03.703Z,36.33
2024-03-02T05:56:10.487Z,37.90
2024-03-02T05:59:17.370Z,34.65
2024-03-02T06:02:21.078Z,34.13
2024-03-02T06:05:24.658Z,31.73
2024-03-02T06:08:31.232Z,37.30
2024-03-02T06:11:36.853Z,41.13
2024-03-02T06:14:58.914Z,33.03
2024-03-02T06:18:03.375Z,38.72
2024-03-02T06:21:08.479Z,30.67
2024-03-02T06:24:16.838Z,35.25
2024-03-02T06:27:23.775Z,46.00
2024-03-02T06:30:29.056Z,42.70
2024-03-02T06:33:33.590Z,36.40
2024-03-02T06:36:38.204Z,35.15
2024-03-02T06:39:42.202Z,40.45
2024-03-02T06:42:45.994Z,35.38
2024-03-02T06:45:51.380Z,34.25
2024-03-02T06:48:55.124Z,41.28
2024-03-02T06:52:01.500Z,39.00
2024-03-02T06:55:06.736Z,36.95
2024-03-02T06:58:10.846Z,42.33
2024-03-02T07:01:18.475Z,39.97
2024-03-02T07:04:24.042Z,34.80
2024-03-02T07:07:27.651Z,34.92
2024-03-02T07:10:31.332Z,34.08
2024-03-02T07:13:35.394Z,35.83
2024-03-02T07:16:41.775Z,39.30
2024-03-02T07:19:45.779Z,36.78
2024-03-02T07:22:49.657Z,37.03
2024-03-02T07:29:03.532Z,31.60
2024-03-02T07:32:09.852Z,34.28
2024-03-02T07:35:15.668Z,41.28
2024-03-02T07:38:19.256Z,38.17
2024-03-02T07:41:25.227Z,33.20
2024-03-02T07:44:29.354Z,37.55
2024-03-02T07:47:34.574Z,39.75
2024-03-02T07:50:40.174Z,34.22
2024-03-02T07:53:45.720Z,37.90
2024-03-02T08:01:25.498Z,32.45
2024-03-02T08:04:31.468Z,33.50
2024-03-02T08:07:35.236Z,37.28
2024-03-02T08:10:38.719Z,37.42
2024-03-02T08:13:42.444Z,35.03
2024-03-02T08:16:47.320Z,32.92
2024-03-02T08:19:52.821Z,36.72
2024-03-02T08:22:57.568Z,28.38
2024-03-02T08:26:01.242Z,32.97
2024-03-02T08:29:05.338Z,30.80
2024-03-02T08:32:09.376Z,31.15
2024-03-02T08:35:14.494Z,34.55
2024-03-02T08:38:21.467Z,34.13
2024-03-02T08:41:26.116Z,33.88
2024-03-02T08:44:29.818Z,34.67
2024-03-02T08:47:33.774Z,29.98
2024-03-02T08:50:39.209Z,32.78
2024-03-02T08:53:43.874Z,36.75
2024-03-02T08:56:47.846Z,30.92
2024-03-02T08:59:51.673Z,31.73
2024-03-02T09:02:55.177Z,31.35
2024-03-02T09:06:00.393Z,31.48
2024-03-02T09:09:05.626Z,34.53
2024-03-02T09:12:10.217Z,28.27
2024-03-02T09:15:17.262Z,35.25
2024-03-02T09:18:22.448Z,28.13
2024-03-02T09:21:27.676Z,27.17
2024-03-02T09:24:32.566Z,26.05
2024-03-02T09:27:36.067Z,24.55
2024-03-02T09:30:39.949Z,30.20
2024-03-02T09:33:45.530Z,34.47
2024-03-02T09:36:50.742Z,30.65
2024-03-02T09:39:54.580Z,27.02
2024-03-02T09:42:58.533Z,23.30
2024-03-02T09:46:02.592Z,29.52
2024-03-02T09:49:06.425Z,25.08
2024-03-02T09:52:11.681Z,25.23
2024-03-02T09:55:16.717Z,29.70
2024-03-02T09:58:21.883Z,25.83
2024-03-02T10:01:33.316Z,30.48
2024-03-02T10:04:48.250Z,27.80
2024-03-02T10:08:06.143Z,25.02
2024-03-02T10:11:13.293Z,29.10
2024-03-02T10:14:17.261Z,24.02
2024-03-02T10:17:21.655Z,25.45
2024-03-02T10:20:25.742Z,22.52
2024-03-02T10:23:32.046Z,24.27
2024-03-02T10:26:37.507Z,24.10
2024-03-02T10:29:42.091Z,22.60
2024-03-02T10:32:46.260Z,20.58
2024-03-02T10:35:53.092Z,22.08
2024-03-02T10:39:02.245Z,20.58
2024-03-02T10:42:10.050Z,20.38
2024-03-02T10:45:15.515Z,18.45
2024-03-02T10:48:26.094Z,18.50
2024-03-02T10:51:34.106Z,19.30
2024-03-02T10:54:42.267Z,22.63
2024-03-02T10:57:53.053Z,18.55
2024-03-02T11:00:57.611Z,23.13
2024-03-02T11:04:02.041Z,21.95
2024-03-02T11:07:07.127Z,21.08
2024-03-02T11:10:13.570Z,22.25
2024-03-02T11:13:20.472Z,20.67
2024-03-02T11:16:33.875Z,25.05
2024-03-02T11:19:37.929Z,17.23
2024-03-02T11:22:42.512Z,15.52
2024-03-02T11:25:48.672Z,18.83
2024-03-02T11:28:52.432Z,16.60
2024-03-02T11:32:02.719Z,19.65
2024-03-02T11:35:08.444Z,19.90
2024-03-02T11:38:14.030Z,16.15
2024-03-02T11:41:19.468Z,19.75
2024-03-02T11:44:23.333Z,14.95
2024-03-02T11:47:27.299Z,19.50
2024-03-02T11:50:36.560Z,17.90
2024-03-02T11:53:41.944Z,14.52
2024-03-02T11:56:47.212Z,17.02
2024-03-02T11:59:52.449Z,14.25
2024-03-02T12:03:08.155Z,16.55
2024-03-02T12:06:12.065Z,15.65
2024-03-02T12:09:16.085Z,18.70
2024-03-02T12:12:25.813Z,15.10
2024-03-02T12:15:38.372Z,13.10
2024-03-02T12:18:45.076Z,11.75
2024-03-02T12:21:49.184Z,12.98
2024-03-02T12:24:53.640Z,12.10
2024-03-02T12:28:00.125Z,17.48
2024-03-02T12:31:04.831Z,12.80
2024-03-02T12:34:08.656Z,16.00
2024-03-02T12:37:15.160Z,13.43
2024-03-02T12:40:19.714Z,14.85
2024-03-02T12:43:25.121Z,15.57
2024-03-02T12:46:29.713Z,14.75
2024-03-02T12:49:36.067Z,12.75
2024-03-02T12:52:40.582Z,13.85
2024-03-02T12:55:45.162Z,13.90
2024-03-02T12:58:50.430Z,14.98
2024-03-02T13:01:55.470Z,15.20
2024-03-02T13:05:00.922Z,14.95
2024-03-02T13:08:05.737Z,13.27
2024-03-02T13:11:10.775Z,13.85
2024-03-02T13:14:18.531Z,12.32
2024-03-02T13:17:27.721Z,13.35
2024-03-02T13:20:33.910Z,14.60
2024-03-02T13:23:39.665Z,15.05
2024-03-02T13:26:44.647Z,9.93
2024-03-02T13:29:49.798Z,9.85
2024-03-02T13:32:55.358Z,14.35
2024-03-02T13:35:59.205Z,14.43
2024-03-02T13:39:03.851Z,11.32
2024-03-02T13:42:10.732Z,12.45
2024-03-02T13:45:15.875Z,8.10
2024-03-02T13:48:19.574Z,11.18
2024-03-02T13:51:23.298Z,12.13
2024-03-02T13:54:31.925Z,14.00
2024-03-02T13:57:37.556Z,16.23
2024-03-02T14:00:45.223Z,12.13
2024-03-02T14:03:49.103Z,16.33
2024-03-02T14:06:55.338Z,17.20
2024-03-02T14:09:59.651Z,13.43
2024-03-02T14:13:03.322Z,13.65
2024-03-02T14:16:10.066Z,14.00
2024-03-02T14:19:15.752Z,15.93
2024-03-02T14:22:19.480Z,12.50
2024-03-02T14:25:23.082Z,13.85
2024-03-02T14:28:43.917Z,12.85
2024-03-02T14:31:53.536Z,10.45
2024-03-02T14:35:01.959Z,13.55
2024-03-02T14:38:06.321Z,11.93
2024-03-02T14:41:10.492Z,14.23
2024-03-02T14:44:14.133Z,15.48
2024-03-02T14:47:23.059Z,13.30
2024-03-02T14:50:26.696Z,12.82
2024-03-02T14:53:31.233Z,11.55
2024-03-02T14:56:35.096Z,14.43
2024-03-02T14:59:39.150Z,12.10
2024-03-02T15:02:46.195Z,11.00
2024-03-02T15:05:53.494Z,14.98
2024-03-02T15:08:57.354Z,12.20
2024-03-02T15:12:02.858Z,10.95
2024-03-02T15:15:08.143Z,12.52
2024-03-02T15:18:13.408Z,13.40
2024-03-02T15:21:21.009Z,15.38
2024-03-02T15:24:26.782Z,10.77
2024-03-02T15:27:30.724Z,11.77
2024-03-02T15:30:35.458Z,10.57
2024-03-02T15:33:40.812Z,12.10
2024-03-02T15:36:48.326Z,10.73
2024-03-02T15:39:56.145Z,12.05
2024-03-02T15:43:00.141Z,11.60
2024-03-02T15:46:05.726Z,15.20
2024-03-02T15:49:21.729Z,12.13
2024-03-02T15:52:28.608Z,11.38
2024-03-02T15:55:32.087Z,13.80
2024-03-02T15:58:36.910Z,14.10
2024-03-02T16:01:44.858Z,17.98
2024-03-02T16:04:50.049Z,14.63
2024-03-02T16:07:54.497Z,16.33
2024-03-02T16:11:01.005Z,17.45
2024-03-02T16:14:05.968Z,16.80
2024-03-02T16:17:10.699Z,13.50
2024-03-02T16:20:22.900Z,19.40
2024-03-02T16:23:26.676Z,15.55
2024-03-02T16:26:34.522Z,13.35
2024-03-02T16:29:38.602Z,16.55
2024-03-02T16:32:44.717Z,17.00
2024-03-02T16:35:53.401Z,17.10
2024-03-02T16:38:57.816Z,14.82
2024-03-02T16:42:03.919Z,19.85
2024-03-02T16:45:07.896Z,19.67
2024-03-02T16:48:11.432Z,20.63
2024-03-02T16:51:17.959Z,16.90
2024-03-02T16:54:21.489Z,14.82
2024-03-02T16:57:26.391Z,19.42
2024-03-02T17:00:30.509Z,19.85
2024-03-02T17:03:33.985Z,18.17
2024-03-02T17:06:44.958Z,22.15
2024-03-02T17:09:48.806Z,19.95
2024-03-02T17:12:52.691Z,18.55
2024-03-02T17:15:58.420Z,20.48
2024-03-02T17:19:02.934Z,19.38
2024-03-02T17:22:08.790Z,17.75
2024-03-02T17:25:12.606Z,16.70
2024-03-02T17:28:29.545Z,19.73
2024-03-02T17:31:36.524Z,18.58
2024-03-02T17:34:42.246Z,22.98
2024-03-02T17:37:47.804Z,20.60
2024-03-02T17:40:51.370Z,20.65
2024-03-02T17:43:54.930Z,25.05
2024-03-02T17:46:59.685Z,22.85
2024-03-02T17:50:08.492Z,21.45
2024-03-02T17:53:13.545Z,19.90
2024-03-02T17:56:18.395Z,20.67
2024-03-02T17:59:21.951Z,20.45
2024-03-02T18:02:27.342Z,18.17
2024-03-02T18:05:30.779Z,21.58
2024-03-02T18:08:38.846Z,28.33
2024-03-02T18:12:08.465Z,19.83
2024-03-02T18:15:14.523Z,22.13
2024-03-02T18:18:19.159Z,23.20
2024-03-02T18:21:22.813Z,21.33
2024-03-02T18:24:29.884Z,24.02
2024-03-02T18:27:36.806Z,23.48
2024-03-02T18:30:42.286Z,26.08
2024-03-02T18:33:49.079Z,21.67
2024-03-02T18:36:54.987Z,26.48
2024-03-02T18:40:03.527Z,24.40
2024-03-02T18:43:10.025Z,25.27
2024-03-02T18:46:14.761Z,26.90
2024-03-02T18:49:19.697Z,26.83
2024-03-02T18:52:30.180Z,23.50
2024-03-02T18:55:35.637Z,21.60
2024-03-02T18:58:39.641Z,21.67
2024-03-02T19:01:45.453Z,23.67
2024-03-02T19:04:49.210Z,22.35
2024-03-02T19:07:52.965Z,18.38
2024-03-02T19:10:57.978Z,21.80
2024-03-02T19:14:01.653Z,19.65
2024-03-02T19:21:56.198Z,21.27
2024-03-02T19:25:10.007Z,24.70
2024-03-02T19:28:15.683Z,21.65
2024-03-02T19:31:19.761Z,25.25
2024-03-02T19:34:24.970Z,21.65
2024-03-02T19:37:29.577Z,23.70
2024-03-02T19:40:38.727Z,21.67
2024-03-02T19:43:44.702Z,22.88
2024-03-02T19:46:50.392Z,27.77
2024-03-02T19:49:55.214Z,16.83
2024-03-02T19:53:01.269Z,17.42
2024-03-02T19:56:05.977Z,15.75
2024-03-02T19:59:14.826Z,16.20
2024-03-02T20:02:24.119Z,14.50
2024-03-02T20:05:28.355Z,17.90
2024-03-02T20:08:32.704Z,16.20
2024-03-02T20:11:36.790Z,15.68
2024-03-02T20:14:47.277Z,15.98
2024-03-02T20:17:54.024Z,16.35
2024-03-02T20:21:07.235Z,20.13
2024-03-02T20:24:21.872Z,18.40
2024-03-02T20:27:29.191Z,21.42
2024-03-02T20:30:36.043Z,18.85
2024-03-02T20:33:40.887Z,18.98
2024-03-02T20:36:45.510Z,21.45
2024-03-02T20:39:50.494Z,18.15
2024-03-02T20:42:55.701Z,18.13
2024-03-02T20:46:07.474Z,21.60
2024-03-02T20:49:12.424Z,17.45
2024-03-02T20:52:16.896Z,15.88
2024-03-02T20:55:20.623Z,17.60
2024-03-02T20:58:24.473Z,16.92
2024-03-02T21:01:29.752Z,17.23
2024-03-02T21:04:34.777Z,17.88
2024-03-02T21:07:41.459Z,21.08
2024-03-02T21:10:47.749Z,18.20
2024-03-02T21:17:13.985Z,14.65
2024-03-02T21:20:19.339Z,19.05
2024-03-02T21:23:24.636Z,22.98
2024-03-02T21:26:28.952Z,20.15
2024-03-02T21:29:32.583Z,23.83
2024-03-02T21:32:43.032Z,27.38
2024-03-02T21:35:49.524Z,17.08
2024-03-02T21:38:53.635Z,17.65
2024-03-02T21:42:01.620Z,16.80
2024-03-02T21:45:09.926Z,19.98
2024-03-02T21:48:19.175Z,21.35
2024-03-02T21:51:22.926Z,16.13
2024-03-02T21:54:26.581Z,18.73
2024-03-02T21:57:30.709Z,19.38
2024-03-02T22:00:38.282Z,20.40
2024-03-02T22:03:49.385Z,18.98
2024-03-02T22:06:53.385Z,18.38
2024-03-02T22:10:01.180Z,17.17
2024-03-02T22:13:12.156Z,19.65
2024-03-02T22:16:16.794Z,20.63
2024-03-02T22:19:22.323Z,19.88
2024-03-02T22:22:29.289Z,16.70
2024-03-02T22:25:32.799Z,21.08
2024-03-02T22:28:37.195Z,18.80
2024-03-02T22:31:40.701Z,19.73
2024-03-02T22:34:46.286Z,21.30
2024-03-02T22:37:50.905Z,19.23
2024-03-02T22:40:55.136Z,24.55
2024-03-02T22:44:00.584Z,19.60
2024-03-02T22:47:04.376Z,21.40
2024-03-02T22:50:11.850Z,19.33
2024-03-02T22:53:21.330Z,23.02
2024-03-02T22:56:25.174Z,20.45
2024-03-02T22:59:28.955Z,20.38
2024-03-02T23:02:38.835Z,23.15
2024-03-02T23:05:45.959Z,19.92
2024-03-02T23:08:50.101Z,18.85
2024-03-02T23:11:53.805Z,23.27
2024-03-02T23:14:58.172Z,23.80
2024-03-02T23:18:02.056Z,21.25
2024-03-02T23:21:07.898Z,22.10
2024-03-02T23:24:16.072Z,23.00
2024-03-02T23:27:20.519Z,21.00
2024-03-02T23:30:31.266Z,19.90
2024-03-02T23:33:35.906Z,21.80
2024-03-02T23:36:43.654Z,19.95
2024-03-02T23:40:01.256Z,21.70
2024-03-02T23:43:05.978Z,18.83
2024-03-02T23:46:12.351Z,22.30
2024-03-02T23:49:19.179Z,23.88
2024-03-02T23:52:24.648Z,24.70
2024-03-02T23:55:39.637Z,24.40
2024-03-02T23:58:51.771Z,21.88
